Latest Weather Observations for Inverell RS

IDN60801

Issued at 11:05 am EDT Tuesday 21 October 2014 (issued every 30 minutes, with the page automatically refreshed every 10 minutes)

About weather observations | Map of weather stations | Latest weather observations for NSW | Other Formats
Station Details ID: 056018 Name: INVERELL RESEARCH CENTRE Lat: -29.78 Lon: 151.08 Height: 664.0 m
Data from the previous 72 hours. | See also: Recent months at Inverell RS
Date/Time
EDT
Temp
°C
App
Temp
°C
Dew
Point
Rel
Hum
%
Delta-T
°C
Wind Press
QNH
hPa
Press
MSL
hPa
Rain
since 9 am
mm
Dir
 
Spd
km/h
Gust
km/h
Spd
kts
Gust
kts
21/11:00am 21.7 19.3 8.6 43 7.1 ESE 11 22 6 12 1028.8 - 0.0
21/10:30am 21.4 19.1 8.9 44 6.8 ESE 11 19 6 10 1028.9 - 0.0
21/10:00am 20.2 17.0 8.5 47 6.3 E 15 22 8 12 1029.0 - 0.0
21/09:30am 19.6 16.9 9.1 50 5.7 ENE 13 26 7 14 1029.0 - 0.0
21/09:00am 18.2 15.6 9.3 56 4.8 E 13 19 7 10 1028.8 1027.2 0.0
21/08:30am 17.5 15.0 9.7 60 4.2 ESE 13 19 7 10 1028.6 - 0.0
21/08:00am 16.1 14.4 9.8 66 3.4 SE 9 15 5 8 1028.4 - 0.0
21/07:30am 15.2 13.4 9.4 68 3.1 ESE 9 13 5 7 1028.0 - 0.0
21/07:00am 13.6 12.2 9.4 76 2.2 SSE 7 9 4 5 1027.5 - 0.0
21/06:30am 13.0 11.6 9.4 79 1.9 ESE 7 13 4 7 1027.2 - 0.0
21/06:00am 12.6 11.4 9.5 81 1.6 SE 6 9 3 5 1026.8 1025.3 0.0
21/05:30am 12.6 11.8 9.5 81 1.6 ENE 4 7 2 4 1026.5 - 0.0
21/05:00am 12.9 11.8 9.9 82 1.6 ENE 6 7 3 4 1026.4 - 0.0
21/04:30am 12.8 11.5 9.8 82 1.6 SE 7 9 4 5 1026.4 - 0.0
21/04:00am 12.5 11.3 10.2 86 1.2 SE 7 9 4 5 1026.3 - 0.0
21/03:30am 12.9 11.3 10.3 84 1.4 E 9 11 5 6 1026.2 - 0.0
21/03:00am 14.6 13.1 10.7 77 2.1 ENE 9 17 5 9 1026.4 1024.8 0.0
21/02:30am 14.8 13.8 11.0 78 2.1 NE 7 9 4 5 1026.4 - 0.0
21/02:00am 15.3 13.9 10.9 75 2.4 NNE 9 11 5 6 1026.6 - 0.0
21/01:30am 15.8 13.7 11.3 74 2.5 ENE 13 19 7 10 1026.7 - 0.0
21/01:00am 16.5 13.7 11.5 72 2.8 E 17 28 9 15 1027.0 - 0.0
21/12:30am 16.9 14.6 11.9 72 2.8 ENE 15 24 8 13 1027.1 - 0.0
21/12:00am 16.8 16.3 12.6 76 2.4 ENE 7 13 4 7 1027.1 1025.6 0.0
 
Date/Time
EDT
Temp
°C
App
Temp
°C
Dew
Point
Rel
Hum
%
Delta-T
°C
Wind Press
QNH
hPa
Press
MSL
hPa
Rain
since 9 am
mm
Dir
 
Spd
km/h
Gust
km/h
Spd
kts
Gust
kts
20/11:30pm 17.3 16.5 12.8 75 2.6 E 9 13 5 7 1027.3 - 0.0
20/11:00pm 18.1 16.9 12.7 70 3.1 E 11 17 6 9 1027.2 - 0.0
20/10:30pm 18.5 17.6 12.6 68 3.4 NE 9 13 5 7 1027.2 - 0.0
20/10:00pm 19.1 17.4 12.5 65 3.8 ENE 13 19 7 10 1026.8 - 0.0
20/09:30pm 19.7 17.8 11.8 60 4.5 E 13 17 7 9 1026.7 - 0.0
20/09:00pm 20.8 17.4 10.6 52 5.7 ENE 19 26 10 14 1026.1 1024.5 0.0
20/08:30pm 21.8 17.4 9.0 44 7.0 ENE 22 33 12 18 1025.4 - 0.0
20/08:00pm 23.3 19.0 7.2 35 8.6 E 19 30 10 16 1024.5 - 0.0
20/07:30pm 24.6 21.4 6.9 32 9.5 E 13 19 7 10 1023.8 - 0.0
20/07:00pm 25.3 22.4 6.3 29 10.1 ESE 11 17 6 9 1022.9 - 0.0
20/06:30pm 27.3 24.7 6.0 25 11.4 S 9 15 5 8 1022.2 - 0.0
20/06:00pm 28.6 24.6 2.8 19 13.2 SSE 13 19 7 10 1021.9 1020.3 0.0
20/05:30pm 29.0 25.1 3.2 19 13.3 S 13 26 7 14 1021.7 - 0.0
20/05:00pm 29.0 24.3 2.9 18 13.4 SSW 17 26 9 14 1021.8 - 0.0
20/04:30pm 29.2 24.6 3.6 19 13.3 S 17 28 9 15 1021.7 - 0.0
20/04:00pm 29.5 24.6 3.9 19 13.4 SSE 19 33 10 18 1021.9 - 0.0
20/03:30pm 29.4 24.8 3.7 19 13.4 S 17 33 9 18 1022.3 - 0.0
20/03:00pm 29.0 23.9 3.2 19 13.3 SSE 19 37 10 20 1022.8 1021.2 0.0
20/02:30pm 28.8 23.8 3.8 20 13.1 SSE 19 30 10 16 1023.2 - 0.0
20/02:00pm 28.8 24.7 4.5 21 12.8 SSE 15 30 8 16 1023.9 - 0.0
20/01:30pm 28.3 23.8 4.1 21 12.7 SSE 17 28 9 15 1024.3 - 0.0
20/01:00pm 27.4 22.6 4.7 23 11.9 SSE 19 28 10 15 1024.7 - 0.0
20/12:30pm 25.9 23.3 7.8 31 10.0 SW 11 22 6 12 1025.4 - 0.0
20/12:00pm 24.2 21.1 7.3 34 9.1 SW 13 19 7 10 1026.0 1024.4 0.0
20/11:30am 23.7 20.5 6.8 33 9.0 S 13 24 7 13 1026.4 - 0.0
20/11:00am 22.9 20.8 8.1 38 8.1 S 9 17 5 9 1026.8 - 0.0
20/10:30am 21.6 19.9 8.5 43 7.1 WNW 7 13 4 7 1027.4 - 0.0
20/10:00am 20.8 18.8 8.6 45 6.6 SSW 9 17 5 9 1027.7 - 0.0
20/09:30am 19.1 17.6 9.1 52 5.4 ESE 7 11 4 6 1027.7 - 0.0
20/09:00am 17.9 16.3 8.9 55 4.8 NNE 7 15 4 8 1027.6 1026.0 0.0
20/08:30am 16.9 15.1 8.1 56 4.6 ENE 7 11 4 6 1027.4 - 0.0
20/08:00am 15.9 15.7 8.9 63 3.7 CALM 0 0 0 0 1027.1 - 0.0
20/07:30am 14.0 12.1 7.5 65 3.3 SE 7 9 4 5 1027.0 - 0.0
20/07:00am 12.8 11.1 8.5 75 2.2 SSE 7 9 4 5 1026.6 - 0.0
20/06:30am 11.2 9.2 6.9 75 2.1 S 7 9 4 5 1026.3 - 0.0
20/06:00am 11.2 9.3 6.7 74 2.2 SSE 6 7 3 4 1025.9 1024.2 0.0
20/05:30am 11.3 10.2 6.8 74 2.2 SSE 2 7 1 4 1025.6 - 0.0
20/05:00am 12.1 11.0 7.1 71 2.5 NNE 2 7 1 4 1025.4 - 0.0
20/04:30am 11.9 10.0 6.8 71 2.5 S 6 7 3 4 1025.1 - 0.0
20/04:00am 12.2 10.4 7.0 70 2.6 SSE 6 7 3 4 1025.0 - 0.0
20/03:30am 12.9 12.2 6.9 67 3.0 CALM 0 0 0 0 1025.1 - 0.0
20/03:00am 13.6 13.0 7.5 66 3.1 CALM 0 0 0 0 1025.5 1023.9 0.0
20/02:30am 14.1 12.4 7.6 65 3.3 SE 6 6 3 3 1025.6 - 0.0
20/02:00am 14.1 13.7 8.1 67 3.1 CALM 0 0 0 0 1025.6 - 0.0
20/01:30am 14.3 13.9 8.3 67 3.1 CALM 0 0 0 0 1025.9 - 0.0
20/01:00am 15.0 13.7 7.8 62 3.7 NNE 4 7 2 4 1026.1 - 0.0
20/12:30am 15.7 13.8 7.5 58 4.2 N 7 9 4 5 1026.3 - 0.0
20/12:00am 16.6 14.9 7.7 55 4.6 SE 6 7 3 4 1026.5 1024.9 0.0
 
Date/Time
EDT
Temp
°C
App
Temp
°C
Dew
Point
Rel
Hum
%
Delta-T
°C
Wind Press
QNH
hPa
Press
MSL
hPa
Rain
since 9 am
mm
Dir
 
Spd
km/h
Gust
km/h
Spd
kts
Gust
kts
19/11:30pm 17.0 14.7 7.3 53 5.0 SSE 9 11 5 6 1026.5 - 0.0
19/11:00pm 17.2 15.0 6.1 48 5.6 SE 7 11 4 6 1026.4 - 0.0
19/10:30pm 16.7 13.7 4.3 43 6.0 SSE 9 13 5 7 1026.2 - 0.0
19/10:00pm 19.4 15.9 3.6 35 7.7 WSW 11 15 6 8 1025.7 - 0.0
19/09:30pm 20.0 16.9 3.7 34 8.0 WSW 9 13 5 7 1025.6 - 0.0
19/09:00pm 20.1 16.9 3.2 32 8.2 W 9 11 5 6 1025.2 1023.6 0.0
19/08:30pm 21.0 17.8 2.9 30 8.8 WSW 9 13 5 7 1024.8 - 0.0
19/08:00pm 20.6 17.5 3.8 33 8.3 WSW 9 11 5 6 1024.6 - 0.0
19/07:30pm 21.0 18.4 4.1 33 8.4 SW 7 11 4 6 1024.3 - 0.0
19/07:00pm 22.5 19.9 4.3 30 9.2 SW 7 11 4 6 1024.0 - 0.0
19/06:30pm 23.6 21.9 4.0 28 9.9 S 2 7 1 4 1023.8 - 0.0
19/06:00pm 24.8 21.9 4.6 27 10.4 S 9 11 5 6 1023.5 1021.9 0.0
19/05:30pm 25.3 23.0 4.9 27 10.6 W 6 11 3 6 1023.4 - 0.0
19/05:00pm 25.1 22.2 4.5 26 10.6 E 9 13 5 7 1023.3 - 0.0
19/04:30pm 25.1 21.4 2.6 23 11.2 ESE 11 19 6 10 1023.4 - 0.0
19/04:00pm 25.3 22.3 4.3 25 10.8 W 9 11 5 6 1023.6 - 0.0
19/03:30pm 25.0 21.7 4.6 26 10.6 SW 11 22 6 12 1024.1 - 0.0
19/03:00pm 24.3 21.0 4.6 28 10.1 W 11 15 6 8 1024.4 1022.9 0.0
19/02:30pm 23.7 20.8 4.8 29 9.7 SW 9 19 5 10 1025.2 - 0.0
19/02:00pm 23.7 20.5 5.1 30 9.6 SW 11 19 6 10 1025.8 - 0.0
19/01:30pm 23.4 19.8 5.1 30 9.5 SSW 13 24 7 13 1026.2 - 0.0
19/01:00pm 22.3 19.2 5.6 33 8.7 WSW 11 20 6 11 1026.7 - 0.0
19/12:30pm 22.1 18.8 4.7 32 8.9 W 11 24 6 13 1027.4 - 0.0
19/12:00pm 22.4 18.8 5.2 32 8.8 S 13 19 7 10 1027.8 1026.2 0.0
19/11:30am 21.6 18.3 6.2 36 8.0 S 13 26 7 14 1028.2 - 0.0
19/11:00am 20.4 17.2 6.8 41 7.1 SSW 13 20 7 11 1028.6 - 0.0
19/10:30am 19.5 17.1 7.0 44 6.5 WSW 9 17 5 9 1028.9 - 0.0
19/10:00am 19.2 17.4 8.1 48 5.9 ESE 7 15 4 8 1028.9 - 0.0
19/09:30am 17.3 15.6 7.4 52 5.1 ENE 6 11 3 6 1029.0 - 0.0
19/09:00am 16.4 17.1 16.1 98 0.2 ENE 7 11 4 6 1028.8 1027.2 0.0
19/08:30am 14.7 12.9 8.1 64 3.4 ESE 7 13 4 7 1028.6 - 0.0
19/08:00am 13.7 11.6 8.2 69 2.8 ESE 9 11 5 6 1028.3 - 0.0
19/07:30am 12.7 11.0 8.4 75 2.2 ESE 7 11 4 6 1028.0 - 0.0
19/07:00am 11.3 9.6 8.3 82 1.5 SE 7 11 4 6 1027.7 - 0.0
19/06:30am 10.2 8.3 7.4 83 1.4 SE 7 9 4 5 1027.4 - 0.0
19/06:00am 9.6 7.7 7.4 86 1.1 SE 7 13 4 7 1027.1 1025.4 0.0
19/05:30am 9.8 7.9 7.6 86 1.1 SE 7 9 4 5 1026.7 - 0.0
19/05:00am 10.2 8.5 7.6 84 1.3 ESE 6 7 3 4 1026.7 - 0.0
19/04:30am 10.0 8.1 7.6 85 1.2 ESE 7 9 4 5 1026.8 - 0.0
19/04:00am 10.4 8.8 7.8 84 1.3 ESE 6 7 3 4 1026.6 - 0.0
19/03:30am 10.6 8.8 7.8 83 1.4 ESE 7 9 4 5 1026.8 - 0.0
19/03:00am 10.8 9.0 8.0 83 1.4 E 7 9 4 5 1026.8 1025.3 0.0
19/02:30am 10.9 9.2 8.3 84 1.3 E 7 9 4 5 1027.0 - 0.0
19/02:00am 10.8 8.7 8.4 85 1.2 E 9 13 5 7 1027.0 - 0.0
19/01:30am 11.2 9.1 8.2 82 1.5 E 9 11 5 6 1027.2 - 0.0
19/01:00am 11.5 9.5 8.6 82 1.5 E 9 11 5 6 1027.2 - 0.0
19/12:30am 12.1 10.5 8.8 80 1.7 E 7 9 4 5 1027.5 - 0.0
19/12:00am 12.6 11.2 8.7 77 2.0 E 6 7 3 4 1027.6 1026.0 0.0
 
Date/Time
EDT
Temp
°C
App
Temp
°C
Dew
Point
Rel
Hum
%
Delta-T
°C
Wind Press
QNH
hPa
Press
MSL
hPa
Rain
since 9 am
mm
Dir
 
Spd
km/h
Gust
km/h
Spd
kts
Gust
kts
18/11:30pm 13.5 11.6 8.9 74 2.4 ENE 9 17 5 9 1027.5 - 0.0
18/11:00pm 14.3 10.8 8.7 69 2.9 ENE 17 24 9 13 1027.4 - 0.0
18/10:30pm 14.5 11.8 9.0 69 2.9 ENE 13 24 7 13 1027.5 - 0.0
18/10:00pm 14.3 11.9 6.9 61 3.7 ESE 9 15 5 8 1027.1 - 0.0
18/09:30pm 14.9 11.9 3.9 47 5.2 ESE 9 15 5 8 1026.6 - 0.0
18/09:00pm 17.8 14.1 -0.1 30 8.0 SSW 9 13 5 7 1025.8 1024.2 0.0
18/08:30pm 18.2 14.3 -1.6 26 8.6 SW 9 11 5 6 1025.7 - 0.0
18/08:00pm 18.8 14.7 -2.7 23 9.2 WSW 9 11 5 6 1025.2 - 0.0
18/07:30pm 19.5 15.6 -1.3 24 9.2 SW 9 13 5 7 1024.9 - 0.0
18/07:00pm 20.3 16.7 0.6 27 9.2 SW 9 11 5 6 1024.7 - 0.0
18/06:30pm 20.9 18.0 2.7 30 8.8 SSW 7 9 4 5 1024.3 - 0.0
18/06:00pm 22.9 20.8 3.7 28 9.6 SE 4 7 2 4 1024.0 1022.3 0.0
18/05:30pm 22.8 19.5 2.6 26 9.9 ESE 9 13 5 7 1023.8 - 0.0
18/05:00pm 23.2 20.2 1.7 24 10.4 SW 7 13 4 7 1023.6 - 0.0
18/04:30pm 22.9 19.1 1.8 25 10.2 SSE 11 15 6 8 1023.6 - 0.0
18/04:00pm 22.8 18.9 0.9 23 10.4 E 11 17 6 9 1023.9 - 0.0
18/03:30pm 24.1 20.9 3.3 25 10.5 S 9 17 5 9 1024.1 - 0.0
18/03:00pm 22.3 18.9 2.0 26 9.8 NW 9 13 5 7 1024.6 1023.1 0.0
18/02:30pm 23.0 20.5 4.5 30 9.4 NNW 7 13 4 7 1025.0 - 0.0
18/02:00pm 21.6 18.1 3.3 30 9.0 ENE 11 19 6 10 1025.4 - 0.0
18/01:30pm 21.3 18.2 3.7 31 8.7 NE 9 17 5 9 1025.8 - 0.0
18/01:00pm 22.6 20.1 5.0 32 9.0 W 7 13 4 7 1026.2 - 0.0
18/12:30pm 20.4 16.8 3.1 32 8.4 E 11 17 6 9 1026.7 - 0.0
18/12:00pm 20.6 17.7 4.9 35 7.9 NE 9 11 5 6 1027.0 1025.4 0.0
18/11:30am 19.5 16.6 4.6 37 7.4 E 9 15 5 8 1027.3 - 0.0

Other Formats:

Comma delimited format used in spreadsheet applications
http://www.bom.gov.au/fwo/IDN60801/IDN60801.94541.axf

JavaScript Object Notation format (JSON) in row-major order
http://www.bom.gov.au/fwo/IDN60801/IDN60801.94541.json